createdAt,value
2022-09-26T00:00:00.904Z,99198.88
2022-09-26T00:05:02.518Z,99188.28
2022-09-26T00:10:04.608Z,99186.53
2022-09-26T00:15:06.952Z,99175.84
2022-09-26T00:20:09.088Z,99188.38
2022-09-26T00:25:10.715Z,99174.41
2022-09-26T00:30:12.391Z,99179.59
2022-09-26T00:35:13.925Z,99173.03
2022-09-26T00:40:16.339Z,99172.59
2022-09-26T00:45:17.980Z,99171.94
2022-09-26T00:50:26.754Z,99170.31
2022-09-26T00:55:35.077Z,99164.00
2022-09-26T01:00:42.241Z,99162.50
2022-09-26T01:05:45.592Z,99155.09
2022-09-26T01:10:47.318Z,99155.16
2022-09-26T01:15:49.238Z,99155.19
2022-09-26T01:21:44.949Z,99153.38
2022-09-26T01:27:08.417Z,99159.56
2022-09-26T01:32:48.105Z,99154.78
2022-09-26T01:38:13.257Z,99149.56
2022-09-26T01:43:56.663Z,99146.44
2022-09-26T01:49:10.985Z,99143.59
2022-09-26T01:54:21.739Z,99140.31
2022-09-26T01:59:38.482Z,99142.59
2022-09-26T02:04:45.772Z,99137.97
2022-09-26T02:09:59.262Z,99134.56
2022-09-26T02:15:04.907Z,99138.97
2022-09-26T02:20:24.714Z,99131.41
2022-09-26T02:25:28.453Z,99128.75
2022-09-26T02:30:30.526Z,99126.81
2022-09-26T02:35:52.280Z,99125.50
2022-09-26T02:41:04.831Z,99114.50
2022-09-26T02:46:39.648Z,99121.59
2022-09-26T02:52:00.029Z,99116.78
2022-09-26T02:57:24.889Z,99119.59
2022-09-26T03:02:34.003Z,99115.81
2022-09-26T03:08:11.611Z,99107.56
2022-09-26T03:13:16.861Z,99107.16
2022-09-26T03:18:22.775Z,99112.47
2022-09-26T03:23:26.123Z,99115.19
2022-09-26T03:28:37.577Z,99106.88
2022-09-26T03:33:40.507Z,99102.34
2022-09-26T03:38:42.523Z,99099.97
2022-09-26T03:43:58.842Z,99108.44
2022-09-26T03:49:12.160Z,99109.25
2022-09-26T03:54:14.345Z,99111.13
2022-09-26T03:59:16.313Z,99103.78
2022-09-26T04:04:19.163Z,99101.88
2022-09-26T04:09:21.561Z,99098.78
2022-09-26T04:14:26.468Z,99094.16
2022-09-26T04:19:31.737Z,99098.94
2022-09-26T04:24:34.607Z,99081.59
2022-09-26T04:29:36.341Z,99081.19
2022-09-26T04:34:44.406Z,99084.66
2022-09-26T04:39:46.217Z,99086.84
2022-09-26T04:44:48.279Z,99086.78
2022-09-26T04:49:51.607Z,99084.06
2022-09-26T04:54:53.223Z,99083.69
2022-09-26T04:59:54.871Z,99082.19
2022-09-26T05:04:59.745Z,99065.09
2022-09-26T05:10:04.172Z,99065.72
2022-09-26T05:15:14.970Z,99068.34
2022-09-26T05:26:04.047Z,99068.59
2022-09-26T05:31:17.769Z,99072.47
2022-09-26T05:36:23.492Z,99070.59
2022-09-26T05:41:39.539Z,99074.25
2022-09-26T05:46:43.603Z,99073.41
2022-09-26T05:51:47.138Z,99077.97
2022-09-26T05:57:12.976Z,99079.81
2022-09-26T06:03:19.969Z,99089.19
2022-09-26T06:08:38.599Z,99085.38
2022-09-26T06:14:00.586Z,99079.59
2022-09-26T06:19:02.666Z,99072.44
2022-09-26T06:24:04.718Z,99078.25
2022-09-26T06:29:12.094Z,99073.09
2022-09-26T06:34:17.232Z,99062.59
2022-09-26T06:39:41.407Z,99068.38
2022-09-26T06:51:08.387Z,99061.72
2022-09-26T06:56:12.260Z,99054.22
2022-09-26T07:08:17.141Z,99044.06
2022-09-26T07:13:23.125Z,99037.19
2022-09-26T07:30:05.542Z,99024.75
2022-09-26T07:41:03.528Z,99038.34
2022-09-26T07:46:25.033Z,99036.72
2022-09-26T07:51:31.408Z,99041.78
2022-09-26T07:56:35.192Z,99033.94
2022-09-26T08:01:54.884Z,99025.41
2022-09-26T08:07:09.846Z,99028.50
2022-09-26T08:12:18.150Z,99029.03
2022-09-26T08:17:24.119Z,99020.31
2022-09-26T08:22:27.078Z,99018.34
2022-09-26T08:27:32.558Z,99020.31
2022-09-26T08:32:34.903Z,99019.75
2022-09-26T08:37:36.694Z,99014.63
2022-09-26T08:43:20.737Z,99010.81
2022-09-26T08:49:29.201Z,99014.50
2022-09-26T08:54:44.137Z,99015.72
2022-09-26T08:59:47.372Z,99010.88
2022-09-26T09:05:06.176Z,98999.44
2022-09-26T09:10:18.033Z,98994.59
2022-09-26T09:15:52.652Z,98991.63
2022-09-26T09:22:03.731Z,98998.97
2022-09-26T09:27:53.373Z,98993.56
2022-09-26T09:33:13.505Z,98995.72
2022-09-26T09:38:31.286Z,98977.28
2022-09-26T09:43:48.601Z,98983.69
2022-09-26T09:48:56.175Z,98978.38
2022-09-26T09:54:24.199Z,98970.31
2022-09-26T09:59:44.939Z,98974.81
2022-09-26T10:04:56.550Z,98975.38
2022-09-26T10:09:58.605Z,98966.22
2022-09-26T10:15:26.197Z,98945.19
2022-09-26T10:20:55.370Z,98938.13
2022-09-26T10:26:03.611Z,98931.94
2022-09-26T10:31:10.419Z,98932.97
2022-09-26T10:36:33.962Z,98940.91
2022-09-26T10:41:41.728Z,98935.69
2022-09-26T10:46:46.475Z,98929.63
2022-09-26T10:52:18.900Z,98933.13
2022-09-26T10:57:28.240Z,98913.44
2022-09-26T11:02:31.264Z,98917.13
2022-09-26T11:07:39.576Z,98914.22
2022-09-26T11:13:20.958Z,98891.53
2022-09-26T11:18:41.916Z,98896.78
2022-09-26T11:23:50.832Z,98887.78
2022-09-26T11:29:03.911Z,98889.91
2022-09-26T11:34:31.496Z,98871.63
2022-09-26T11:40:31.733Z,98868.56
2022-09-26T11:45:59.913Z,98871.72
2022-09-26T11:52:13.080Z,98867.34
2022-09-26T11:57:42.455Z,98858.91
2022-09-26T12:02:54.402Z,98855.22
2022-09-26T12:08:07.804Z,98843.19
2022-09-26T12:13:22.473Z,98839.19
2022-09-26T12:18:46.380Z,98829.06
2022-09-26T12:23:57.265Z,98823.59
2022-09-26T12:29:40.630Z,98810.91
2022-09-26T12:35:07.188Z,98811.31
2022-09-26T12:40:48.580Z,98805.03
2022-09-26T12:45:57.112Z,98805.03
2022-09-26T12:51:04.533Z,98789.09
2022-09-26T12:56:12.459Z,98787.72
2022-09-26T13:01:13.985Z,98776.59
2022-09-26T13:07:02.394Z,98773.25
2022-09-26T13:12:16.767Z,98771.56
2022-09-26T13:17:37.369Z,98767.84
2022-09-26T13:22:48.105Z,98761.03
2022-09-26T13:28:05.057Z,98748.72
2022-09-26T13:33:18.449Z,98755.63
2022-09-26T13:38:39.165Z,98748.75
2022-09-26T13:44:12.942Z,98738.03
2022-09-26T13:49:25.038Z,98732.84
2022-09-26T13:54:44.082Z,98727.66
2022-09-26T13:59:54.151Z,98714.13
2022-09-26T14:05:18.484Z,98712.19
2022-09-26T14:10:32.291Z,98709.03
2022-09-26T14:15:48.599Z,98707.69
2022-09-26T14:20:56.546Z,98688.53
2022-09-26T14:26:06.099Z,98681.75
2022-09-26T14:31:33.555Z,98679.47
2022-09-26T14:36:35.475Z,98683.22
2022-09-26T14:41:41.938Z,98681.31
2022-09-26T14:46:43.950Z,98678.41
2022-09-26T14:51:48.868Z,98676.00
2022-09-26T14:57:00.882Z,98667.34
2022-09-26T15:02:15.236Z,98660.56
2022-09-26T15:07:26.171Z,98663.00
2022-09-26T15:12:39.966Z,98651.19
2022-09-26T15:17:48.713Z,98648.19
2022-09-26T15:22:52.779Z,98638.16
2022-09-26T15:27:56.031Z,98635.25
2022-09-26T15:32:58.693Z,98630.06
2022-09-26T15:38:10.359Z,98624.88
2022-09-26T15:43:22.870Z,98621.13
2022-09-26T15:48:34.374Z,98620.78
2022-09-26T15:53:47.359Z,98603.78
2022-09-26T15:59:21.326Z,98604.94
2022-09-26T16:04:28.833Z,98605.16
2022-09-26T16:09:35.621Z,98603.97
2022-09-26T16:15:00.116Z,98599.75
2022-09-26T16:20:11.721Z,98591.28
2022-09-26T16:25:19.373Z,98593.75
2022-09-26T16:30:20.996Z,98585.66
2022-09-26T16:35:29.476Z,98583.41
2022-09-26T16:40:34.384Z,98588.25
2022-09-26T16:45:36.582Z,98588.59
2022-09-26T16:50:39.326Z,98587.91
2022-09-26T16:55:40.905Z,98595.44
2022-09-26T17:01:01.180Z,98600.59
2022-09-26T17:06:03.315Z,98596.13
2022-09-26T17:11:14.266Z,98595.75
2022-09-26T17:16:16.439Z,98591.31
2022-09-26T17:21:18.110Z,98582.84
2022-09-26T17:26:23.747Z,98587.59
2022-09-26T17:31:26.931Z,98580.81
2022-09-26T17:36:29.740Z,98583.75
2022-09-26T17:41:34.367Z,98575.59
2022-09-26T17:46:39.426Z,98582.00
2022-09-26T17:51:42.291Z,98585.63
2022-09-26T17:56:43.864Z,98570.78
2022-09-26T18:01:50.114Z,98572.63
2022-09-26T18:06:51.772Z,98571.47
2022-09-26T18:11:59.644Z,98569.97
2022-09-26T18:17:02.089Z,98560.50
2022-09-26T18:22:03.807Z,98565.78
2022-09-26T18:27:07.268Z,98557.97
2022-09-26T18:32:25.573Z,98552.91
2022-09-26T18:37:27.109Z,98550.56
2022-09-26T18:42:28.694Z,98547.63
2022-09-26T18:47:35.543Z,98545.94
2022-09-26T18:52:37.168Z,98543.19
2022-09-26T18:57:57.314Z,98538.75
2022-09-26T19:02:58.952Z,98535.44
2022-09-26T19:08:01.378Z,98533.38
2022-09-26T19:13:03.816Z,98526.78
2022-09-26T19:18:05.608Z,98527.75
2022-09-26T19:23:10.535Z,98533.69
2022-09-26T19:28:23.054Z,98533.50
2022-09-26T19:33:24.807Z,98532.09
2022-09-26T19:38:27.124Z,98532.06
